ADDS METAR Data INFO
IDs: Format: Raw Decoded Include TAF

Data at: 0634 UTC 15 Dec 2017

KBOS 150554Z 27012KT 10SM FEW250 M07/M14 A3001 RMK AO2 SLP161 T10721144 11044 21072 51016
KBOS 150454Z 27015G23KT 10SM FEW250 M07/M15 A3000 RMK AO2 SLP158 T10721150 410111072
KBOS 150354Z 27013G19KT 10SM CLR M07/M15 A2999 RMK AO2 SLP154 T10671150
KBOS 150254Z 28013KT 10SM CLR M07/M16 A2996 RMK AO2 SLP145 T10671161 51028
KBOS 150154Z 27013G23KT 10SM CLR M06/M17 A2995 RMK AO2 SLP139 T10611172
KBOS 150054Z 26017G23KT 10SM CLR M06/M17 A2992 RMK AO2 PK WND 29026/2356 SLP131 T10561167
KBOS 142354Z 28017G24KT 10SM CLR M04/M16 A2988 RMK AO2 SLP117 T10441161 11011 21044 51045
KBOS 142254Z 29014G21KT 10SM CLR M03/M16 A2984 RMK AO2 SLP103 T10331156
KBOS 142154Z 28013G25KT 10SM FEW045 M03/M16 A2980 RMK AO2 SLP089 T10281156
KBOS 142054Z 29013KT 10SM FEW045 M02/M16 A2974 RMK AO2 SLP072 T10221156 53033
KBOS 141954Z 28013G22KT 10SM FEW045 M02/M16 A2970 RMK AO2 SLP056 T10171161
KBOS 141854Z 29019G26KT 10SM FEW050 FEW200 M01/M16 A2967 RMK AO2 PK WND 29026/1853 SLP045 T10111156
KBOS 141754Z 30012KT 10SM FEW050 FEW200 M02/M13 A2965 RMK AO2 SLP039 60000 T10171133 11017 21056 52005
KBOS 141654Z 28014G20KT 10SM FEW050 SCT080 SCT200 M03/M13 A2964 RMK AO2 SLP035 T10331133
KBOS 141554Z 27011KT 10SM FEW048 OVC070 M03/M13 A2965 RMK AO2 SLP038 T10331133
KBOS 141454Z 31008KT 10SM FEW065 FEW110 BKN200 M04/M13 A2963 RMK AO2 SLP034 60000 T10391128 53007
KBOS 141354Z 32007KT 10SM FEW050 OVC070 M05/M12 A2961 RMK AO2 SNE13 SLP027 P0000 T10501122
KBOS 141254Z 29009KT 9SM -SN OVC055 M06/M11 A2961 RMK AO2 SNE03B45 SLP025 PCPN VRY LGT P0000 T10561111
KBOS 141154Z 26007KT 7SM -SN OVC060 M06/M11 A2961 RMK AO2 SNE04B48 SLP027 P0000 60000 T10561111 11050 21056 53007
KBOS 141054Z 24009KT 9SM -SN OVC060 M05/M12 A2961 RMK AO2 SNB12E17B49 SLP026 P0000 T10501117
KBOS 140954Z 24012KT 10SM OVC050 M05/M13 A2960 RMK AO2 SLP021 T10501133
KBOS 140854Z 26013G19KT 10SM FEW060 BKN080 OVC090 M05/M13 A2959 RMK AO2 SLP020 T10501133 50009
KBOS 140754Z 25014KT 10SM BKN075 OVC090 M05/M13 A2961 RMK AO2 SLP025 T10501133
KBOS 140654Z 24016G22KT 10SM OVC095 M06/M13 A2960 RMK AO2 SLP022 T10561128
KBOS 140554Z 26017G25KT 10SM SCT110 M06/M13 A2957 RMK AO2 PK WND 27028/0500 SLP011 T10561128 11044 21056 50017
KBOS 140454Z 25017G25KT 10SM CLR M06/M13 A2958 RMK AO2 PK WND 24028/0443 SLP015 T10561128 400221056
KBOS 140354Z 24018G25KT 10SM CLR M06/M13 A2954 RMK AO2 PK WND 27027/0327 SLP002 T10561128
KBOS 140254Z 26019G27KT 10SM CLR M05/M13 A2952 RMK AO2 PK WND 26030/0241 SLP994 T10501128 51022
KBOS 140154Z 25018G28KT 10SM CLR M05/M13 A2952 RMK AO2 PK WND 24032/0122 SLP994 T10501128
KBOS 140054Z 26017G28KT 10SM CLR M04/M12 A2948 RMK AO2 PK WND 27034/0018 SLP980 T10441122
KBOS 132354Z 27019G31KT 10SM FEW035 M04/M13 A2945 RMK AO2 PK WND 25037/2257 SLP972 T10441128 11033 21050 51033
KBOS 132254Z 26018G31KT 10SM FEW035 M04/M13 A2943 RMK AO2 PK WND 26037/2232 SLP964 T10441128
KBOS 132154Z 28019G32KT 10SM FEW045 M04/M13 A2939 RMK AO2 PK WND 28033/2106 SLP950 T10441133
KBOS 132054Z 27020G36KT 10SM FEW035 FEW100 M04/M13 A2935 RMK AO2 PK WND 25036/2049 SLP939 T10441133 51024
KBOS 131954Z 28019G30KT 10SM FEW041 SCT100 M04/M13 A2934 RMK AO2 PK WND 27035/1858 SLP933 T10441133
KBOS 131854Z 27024G30KT 10SM FEW041 SCT090 M04/M13 A2930 RMK AO2 PK WND 27033/1809 SLP921 T10391133